Time;durP1;ratioP1;P1;durP2;ratioP2;P2;SDS_P1;SDS_P2;PMS_P1;PMS_P2;Temp;Humidity;BMP_temperature;BMP_pressure;BME280_temperature;BME280_humidity;BME280_pressure;Samples;Min_cycle;Max_cycle;Signal;HPM_P1;HPM_P2
2022/09/26 00:01:38;;;;;;;;;;;11.60;99.90;;;;;;6250461;22;19954;-76
2022/09/26 00:04:14;;;;;;;;;;;11.70;99.90;;;;;;6250346;22;19918;-76
2022/09/26 00:06:48;;;;;;;;;;;11.70;99.90;;;;;;6251020;22;19960;-75
2022/09/26 00:09:19;;;;;;;;;;;11.60;99.90;;;;;;6275498;22;19911;-76
2022/09/26 00:11:48;;;;;;;;;;;11.80;99.90;;;;;;6187695;23;20266;-77
2022/09/26 00:14:22;;;;;;;;;;;11.70;99.90;;;;;;6164115;23;19922;-76
2022/09/26 00:16:53;;;;;;;;;;;11.70;99.90;;;;;;6163031;23;20238;-76
2022/09/26 00:19:33;;;;;;;;;;;11.60;99.90;;;;;;6165203;23;19916;-77
2022/09/26 00:22:15;;;;;;;;;;;11.60;99.90;;;;;;6188098;23;19923;-76
2022/09/26 00:24:59;;;;;;;;;;;11.60;99.90;;;;;;6163843;23;20251;-79
2022/09/26 00:27:25;;;;;;;;;;;11.60;99.90;;;;;;6188244;23;19912;-76
2022/09/26 00:29:51;;;;;;;;;;;11.70;99.90;;;;;;6188275;23;20245;-77
2022/09/26 00:32:19;;;;;;;;;;;11.60;99.90;;;;;;6188011;23;20373;-78
2022/09/26 00:34:53;;;;;;;;;;;11.70;99.90;;;;;;6187245;23;19919;-77
2022/09/26 00:37:33;;;;;;;;;;;11.70;99.90;;;;;;6239183;23;19919;-77
2022/09/26 00:40:36;;;;;;;;;;;11.60;99.90;;;;;;6164779;23;20265;-78
2022/09/26 00:46:40;;;;;;;;;;;11.70;99.90;;;;;;6272914;22;19911;-77
2022/09/26 00:49:54;;;;;;;;;;;;;;;;;;;;;
2022/09/26 00:52:33;;;;;;;;;;;11.70;99.90;;;;;;6126777;23;20235;-79
2022/09/26 00:55:13;;;;;;;;;;;11.70;99.90;;;;;;6241453;22;19911;-76
2022/09/26 00:57:55;;;;;;;;;;;;;;;;;;;;;
2022/09/26 01:00:30;;;;;;;;;;;11.60;99.90;;;;;;6250038;22;19915;-77
2022/09/26 01:03:01;;;;;;;;;;;11.50;99.90;;;;;;6226258;22;20348;-75
2022/09/26 01:05:30;;;;;;;;;;;11.60;99.90;;;;;;6247725;22;19915;-78
2022/09/26 01:08:09;;;;;;;;;;;11.60;99.90;;;;;;6248545;22;19911;-77
2022/09/26 01:10:39;;;;;;;;;;;11.60;99.90;;;;;;6248088;22;19911;-76
2022/09/26 01:16:20;;;;;;;;;;;11.50;99.90;;;;;;6261758;22;19917;-78
2022/09/26 01:18:54;;;;;;;;;;;11.50;99.90;;;;;;6228336;22;19915;-78
2022/09/26 01:21:54;;;;;;;;;;;11.50;99.90;;;;;;6225181;22;19995;-77
2022/09/26 01:24:31;;;;;;;;;;;11.50;99.90;;;;;;6220172;22;19911;-76
2022/09/26 01:27:37;;;;;;;;;;;11.40;99.90;;;;;;6274714;22;19958;-76
2022/09/26 01:30:08;;;;;;;;;;;11.50;99.90;;;;;;6249987;22;19957;-77
2022/09/26 01:32:56;;;;;;;;;;;11.50;99.90;;;;;;6250319;22;19922;-75
2022/09/26 01:35:30;;;;;;;;;;;11.50;99.90;;;;;;6275287;22;19911;-75
2022/09/26 01:38:01;;;;;;;;;;;11.50;99.90;;;;;;6274344;22;19934;-75
2022/09/26 01:40:38;;;;;;;;;;;11.40;99.90;;;;;;6274695;22;20317;-75
2022/09/26 01:43:38;;;;;;;;;;;11.50;99.90;;;;;;6249810;22;20085;-75
2022/09/26 01:46:08;;;;;;;;;;;11.40;99.90;;;;;;6170362;22;19915;-76
2022/09/26 01:48:57;;;;;;;;;;;11.40;99.90;;;;;;6274182;22;20333;-76
2022/09/26 01:51:26;;;;;;;;;;;11.40;99.90;;;;;;6248699;22;20342;-75
2022/09/26 01:53:58;;;;;;;;;;;11.40;99.90;;;;;;6248675;22;20333;-76
2022/09/26 01:56:36;;;;;;;;;;;11.40;99.90;;;;;;6249335;22;19911;-76
2022/09/26 01:59:11;;;;;;;;;;;11.40;99.90;;;;;;6248781;22;19911;-74
2022/09/26 02:01:42;;;;;;;;;;;11.40;99.90;;;;;;6248941;22;19911;-76
2022/09/26 02:04:13;;;;;;;;;;;11.40;99.90;;;;;;6250269;22;19922;-75
2022/09/26 02:06:42;;;;;;;;;;;11.40;99.90;;;;;;6274438;22;19911;-74
2022/09/26 02:09:10;;;;;;;;;;;11.40;99.90;;;;;;6275241;22;19911;-74
2022/09/26 02:11:41;;;;;;;;;;;11.40;99.90;;;;;;6248847;22;19919;-75
2022/09/26 02:14:30;;;;;;;;;;;11.40;99.90;;;;;;6274812;22;20396;-78
2022/09/26 02:17:00;;;;;;;;;;;11.30;99.90;;;;;;6230157;22;19915;-77
2022/09/26 02:19:34;;;;;;;;;;;11.40;99.90;;;;;;6249219;22;19915;-75
2022/09/26 02:22:00;;;;;;;;;;;11.30;99.90;;;;;;6273504;22;20207;-75
2022/09/26 02:24:26;;;;;;;;;;;11.40;99.90;;;;;;6249488;22;20400;-76
2022/09/26 02:26:52;;;;;;;;;;;11.40;99.90;;;;;;6249236;22;20277;-76
2022/09/26 02:29:20;;;;;;;;;;;11.50;99.90;;;;;;6248435;22;19915;-75
2022/09/26 02:31:57;;;;;;;;;;;11.40;99.90;;;;;;6249349;22;20322;-76
2022/09/26 02:34:25;;;;;;;;;;;11.40;99.90;;;;;;6248835;22;19982;-76
2022/09/26 02:36:54;;;;;;;;;;;11.40;99.90;;;;;;6274381;22;19911;-78
2022/09/26 02:39:20;;;;;;;;;;;11.50;99.90;;;;;;6248643;22;19911;-76
2022/09/26 02:41:59;;;;;;;;;;;11.40;99.90;;;;;;6249167;22;19923;-76
2022/09/26 02:44:46;;;;;;;;;;;11.40;99.90;;;;;;6249458;22;19912;-78
2022/09/26 02:47:35;;;;;;;;;;;11.40;99.90;;;;;;6278111;22;19973;-77
2022/09/26 02:50:13;;;;;;;;;;;11.40;99.90;;;;;;6254488;22;19921;-77
2022/09/26 02:52:57;;;;;;;;;;;11.40;99.90;;;;;;6254345;22;19937;-78
2022/09/26 02:55:44;;;;;;;;;;;11.40;99.90;;;;;;6254462;22;19911;-77
2022/09/26 02:58:29;;;;;;;;;;;11.40;99.90;;;;;;6278927;22;19918;-76
2022/09/26 03:01:00;;;;;;;;;;;11.50;99.90;;;;;;6253943;22;20676;-76
2022/09/26 03:03:32;;;;;;;;;;;11.50;99.90;;;;;;6280829;22;20252;-78
2022/09/26 03:05:59;;;;;;;;;;;11.50;99.90;;;;;;6255951;22;19911;-78
2022/09/26 03:08:29;;;;;;;;;;;11.50;99.90;;;;;;6256419;22;19943;-80
2022/09/26 03:10:57;;;;;;;;;;;11.50;99.90;;;;;;6256263;22;19918;-76
2022/09/26 03:13:24;;;;;;;;;;;11.50;99.90;;;;;;6254780;22;20372;-77
2022/09/26 03:15:54;;;;;;;;;;;11.60;99.90;;;;;;6281268;22;19982;-76
2022/09/26 03:18:27;;;;;;;;;;;11.50;99.90;;;;;;6256222;22;19995;-77
2022/09/26 03:21:00;;;;;;;;;;;11.50;99.90;;;;;;6255514;22;20309;-77
2022/09/26 03:23:27;;;;;;;;;;;11.60;99.90;;;;;;6255760;22;19915;-77
2022/09/26 03:25:59;;;;;;;;;;;11.60;99.90;;;;;;6281601;22;19937;-77
2022/09/26 03:28:33;;;;;;;;;;;11.50;99.90;;;;;;6280230;22;19937;-79
2022/09/26 03:30:59;;;;;;;;;;;11.60;99.90;;;;;;6279719;22;19918;-76
2022/09/26 03:33:31;;;;;;;;;;;11.60;99.90;;;;;;6255698;22;19930;-78
2022/09/26 03:36:04;;;;;;;;;;;11.50;99.90;;;;;;6256169;22;19995;-76
2022/09/26 03:38:32;;;;;;;;;;;11.60;99.90;;;;;;6255811;22;19917;-75
2022/09/26 03:40:58;;;;;;;;;;;11.60;99.90;;;;;;6255511;22;20001;-76
2022/09/26 03:43:24;;;;;;;;;;;11.60;99.90;;;;;;6255805;22;19919;-76
2022/09/26 03:45:53;;;;;;;;;;;11.60;99.90;;;;;;6255332;22;19959;-76
2022/09/26 03:48:20;;;;;;;;;;;11.70;99.90;;;;;;6250416;22;19949;-75
2022/09/26 03:50:46;;;;;;;;;;;11.60;99.90;;;;;;6275894;22;19965;-76
2022/09/26 03:53:18;;;;;;;;;;;11.70;99.90;;;;;;6276160;22;20041;-78
2022/09/26 03:55:49;;;;;;;;;;;11.60;99.90;;;;;;6251286;22;19918;-75
2022/09/26 03:58:20;;;;;;;;;;;11.60;99.90;;;;;;6250982;22;19915;-75
2022/09/26 04:00:48;;;;;;;;;;;11.70;99.90;;;;;;6250146;22;19990;-75
2022/09/26 04:03:13;;;;;;;;;;;11.70;99.90;;;;;;6250518;22;19966;-74
2022/09/26 04:05:42;;;;;;;;;;;11.70;99.90;;;;;;6250405;22;19911;-75
2022/09/26 04:08:08;;;;;;;;;;;11.80;99.90;;;;;;6250781;22;19911;-75
2022/09/26 04:10:37;;;;;;;;;;;11.80;99.90;;;;;;6250863;22;20375;-74
2022/09/26 04:13:02;;;;;;;;;;;11.90;99.90;;;;;;6250769;22;20272;-76
2022/09/26 04:15:28;;;;;;;;;;;11.80;99.90;;;;;;6276244;22;19946;-75
2022/09/26 04:17:54;;;;;;;;;;;11.80;99.90;;;;;;6250911;22;19911;-74
2022/09/26 04:20:20;;;;;;;;;;;11.70;99.90;;;;;;6251354;22;20301;-75
2022/09/26 04:22:48;;;;;;;;;;;11.80;99.90;;;;;;6251574;22;19982;-76
2022/09/26 04:25:13;;;;;;;;;;;11.90;99.90;;;;;;6278477;22;19906;-73
2022/09/26 04:27:39;;;;;;;;;;;11.90;99.90;;;;;;6277724;22;19903;-76
2022/09/26 04:30:05;;;;;;;;;;;11.90;99.90;;;;;;6253512;22;19907;-75
2022/09/26 04:32:31;;;;;;;;;;;11.90;99.90;;;;;;6301548;22;19915;-75
2022/09/26 04:34:59;;;;;;;;;;;11.90;99.90;;;;;;6250287;22;19921;-76
2022/09/26 04:37:24;;;;;;;;;;;11.90;99.90;;;;;;6275469;22;19918;-75
2022/09/26 04:39:50;;;;;;;;;;;11.90;99.90;;;;;;6250255;22;19915;-74
2022/09/26 04:42:16;;;;;;;;;;;11.90;99.90;;;;;;6224495;22;19926;-75
2022/09/26 04:44:42;;;;;;;;;;;11.90;99.90;;;;;;6277339;22;19912;-76
2022/09/26 04:47:08;;;;;;;;;;;11.90;99.90;;;;;;6275691;22;19911;-75
2022/09/26 04:49:34;;;;;;;;;;;11.80;99.90;;;;;;6280734;22;19915;-74
2022/09/26 04:51:59;;;;;;;;;;;11.90;99.90;;;;;;6255154;22;19915;-76
2022/09/26 04:54:27;;;;;;;;;;;11.80;99.90;;;;;;6255086;22;19911;-75
2022/09/26 04:56:58;;;;;;;;;;;11.80;99.90;;;;;;6255354;22;19991;-76
2022/09/26 04:59:24;;;;;;;;;;;11.80;99.90;;;;;;6254762;22;20340;-76
2022/09/26 05:01:56;;;;;;;;;;;11.80;99.90;;;;;;6254414;22;19915;-75
2022/09/26 05:04:21;;;;;;;;;;;11.70;99.90;;;;;;6255331;22;19918;-75
2022/09/26 05:06:54;;;;;;;;;;;11.80;99.90;;;;;;6255488;22;20321;-77
2022/09/26 05:09:27;;;;;;;;;;;11.80;99.90;;;;;;6254978;22;20313;-75
2022/09/26 05:11:53;;;;;;;;;;;11.80;99.90;;;;;;6280884;22;19911;-75
2022/09/26 05:14:44;;;;;;;;;;;11.80;99.90;;;;;;6254093;22;20368;-77
2022/09/26 05:17:10;;;;;;;;;;;11.80;99.90;;;;;;6264371;22;19917;-73
2022/09/26 05:19:36;;;;;;;;;;;11.80;99.90;;;;;;6254394;22;19989;-77
2022/09/26 05:22:12;;;;;;;;;;;11.80;99.90;;;;;;6254661;22;19919;-74
2022/09/26 05:27:23;;;;;;;;;;;11.70;99.90;;;;;;6279901;22;19918;-74
2022/09/26 05:29:55;;;;;;;;;;;11.70;99.90;;;;;;6254318;22;19924;-73
2022/09/26 05:32:24;;;;;;;;;;;11.80;99.90;;;;;;6253522;22;20286;-74
2022/09/26 05:35:10;;;;;;;;;;;11.70;99.90;;;;;;6254417;22;19960;-72
2022/09/26 05:38:11;;;;;;;;;;;11.70;99.90;;;;;;6230211;22;19915;-73
2022/09/26 05:43:28;;;;;;;;;;;11.70;99.90;;;;;;6278997;22;20430;-73
2022/09/26 05:46:13;;;;;;;;;;;11.70;99.90;;;;;;6254876;22;19918;-74
2022/09/26 05:48:44;;;;;;;;;;;11.70;99.90;;;;;;6278855;22;19915;-74
2022/09/26 05:51:14;;;;;;;;;;;11.80;99.90;;;;;;6254084;22;19918;-75
2022/09/26 05:53:52;;;;;;;;;;;11.70;99.90;;;;;;6306480;22;20003;-73
2022/09/26 05:56:26;;;;;;;;;;;11.40;99.90;;;;;;6254689;22;19960;-73
2022/09/26 05:59:05;;;;;;;;;;;;;;;;;;;;;
2022/09/26 06:01:35;;;;;;;;;;;11.60;99.90;;;;;;6280170;22;19922;-74
2022/09/26 06:04:22;;;;;;;;;;;11.60;99.90;;;;;;6256171;22;19911;-75
2022/09/26 06:06:50;;;;;;;;;;;11.60;99.90;;;;;;6278717;22;20341;-73
2022/09/26 06:09:22;;;;;;;;;;;11.70;99.90;;;;;;6254798;22;19918;-73
2022/09/26 06:11:48;;;;;;;;;;;11.60;99.90;;;;;;6254812;22;20268;-74
2022/09/26 06:14:16;;;;;;;;;;;11.60;99.90;;;;;;6279238;22;19960;-74
2022/09/26 06:16:41;;;;;;;;;;;11.60;99.90;;;;;;6254479;22;19918;-73
2022/09/26 06:19:10;;;;;;;;;;;11.60;99.90;;;;;;6254191;22;19918;-74
2022/09/26 06:21:53;;;;;;;;;;;11.60;99.90;;;;;;6280155;22;20345;-75
2022/09/26 06:24:24;;;;;;;;;;;11.60;99.90;;;;;;6254704;22;19977;-73
2022/09/26 06:27:10;;;;;;;;;;;11.60;99.90;;;;;;6254117;22;19915;-73
2022/09/26 06:29:38;;;;;;;;;;;11.70;99.90;;;;;;6254559;22;20382;-76
2022/09/26 06:32:04;;;;;;;;;;;11.70;99.90;;;;;;6279768;22;20002;-73
2022/09/26 06:34:32;;;;;;;;;;;11.70;99.90;;;;;;6254780;22;19934;-74
2022/09/26 06:37:00;;;;;;;;;;;11.80;99.90;;;;;;6255143;22;19950;-74
2022/09/26 06:39:39;;;;;;;;;;;11.80;99.90;;;;;;6281560;22;19986;-75
2022/09/26 06:42:06;;;;;;;;;;;11.80;99.90;;;;;;6256293;22;19915;-74
2022/09/26 06:44:32;;;;;;;;;;;11.90;99.90;;;;;;6308918;22;19911;-74
2022/09/26 06:47:00;;;;;;;;;;;11.80;99.90;;;;;;6255994;22;19919;-75
2022/09/26 06:49:28;;;;;;;;;;;11.80;99.90;;;;;;6250681;22;19911;-73
2022/09/26 06:52:03;;;;;;;;;;;11.80;99.90;;;;;;6276608;22;19915;-77
2022/09/26 06:55:10;;;;;;;;;;;;;;;;;;;;;
2022/09/26 07:01:24;;;;;;;;;;;11.90;99.90;;;;;;6275676;22;19957;-77
2022/09/26 07:03:50;;;;;;;;;;;11.80;99.90;;;;;;6250363;22;19919;-76
2022/09/26 07:06:16;;;;;;;;;;;11.90;99.90;;;;;;6275748;22;19973;-72
2022/09/26 07:08:41;;;;;;;;;;;11.90;99.90;;;;;;6275860;22;19917;-73
2022/09/26 07:11:07;;;;;;;;;;;11.90;99.90;;;;;;6250671;22;19922;-75
2022/09/26 07:13:34;;;;;;;;;;;11.90;99.90;;;;;;6276199;22;19982;-76
2022/09/26 07:16:00;;;;;;;;;;;11.90;99.90;;;;;;6276679;22;19916;-77
2022/09/26 07:18:25;;;;;;;;;;;12.00;99.90;;;;;;6276845;22;19922;-76
2022/09/26 07:20:54;;;;;;;;;;;12.00;99.90;;;;;;6250970;22;20257;-79
2022/09/26 07:23:21;;;;;;;;;;;12.10;99.90;;;;;;6250486;22;19922;-75
2022/09/26 07:25:47;;;;;;;;;;;12.00;99.90;;;;;;6276305;22;19915;-78
2022/09/26 07:28:15;;;;;;;;;;;12.10;99.90;;;;;;6251600;22;19918;-74
2022/09/26 07:30:41;;;;;;;;;;;12.00;99.90;;;;;;6250911;22;20225;-78
2022/09/26 07:33:06;;;;;;;;;;;12.10;99.90;;;;;;6250774;22;19923;-75
2022/09/26 07:35:34;;;;;;;;;;;12.20;99.90;;;;;;6250850;22;19911;-75
2022/09/26 07:37:59;;;;;;;;;;;12.20;99.90;;;;;;6276727;22;20258;-77
2022/09/26 07:40:25;;;;;;;;;;;12.20;99.90;;;;;;6251097;22;19962;-77
2022/09/26 07:42:51;;;;;;;;;;;12.20;99.90;;;;;;6277268;22;19915;-78
2022/09/26 07:50:09;;;;;;;;;;;12.30;99.90;;;;;;6276617;22;19920;-73
2022/09/26 07:50:52;;;;;;;;;;;12.30;99.90;;;;;;6276825;22;19922;-78
2022/09/26 07:53:20;;;;;;;;;;;12.40;99.90;;;;;;6250946;22;19918;-78
2022/09/26 07:56:04;;;;;;;;;;;12.40;99.90;;;;;;6250825;22;20345;-76
2022/09/26 07:58:34;;;;;;;;;;;12.40;99.90;;;;;;6276693;22;19917;-77
2022/09/26 08:01:16;;;;;;;;;;;12.50;99.90;;;;;;6251174;22;19951;-78
2022/09/26 08:03:57;;;;;;;;;;;12.50;99.90;;;;;;6250446;22;20280;-79
2022/09/26 08:06:26;;;;;;;;;;;12.50;99.90;;;;;;6251435;22;20353;-76
2022/09/26 08:09:03;;;;;;;;;;;12.50;99.90;;;;;;6252897;22;19918;-76
2022/09/26 08:11:32;;;;;;;;;;;12.50;99.90;;;;;;6218940;23;19911;-77
2022/09/26 08:14:24;;;;;;;;;;;12.50;99.90;;;;;;6194167;23;20342;-77
2022/09/26 08:16:53;;;;;;;;;;;12.60;99.90;;;;;;6191914;23;19911;-75
2022/09/26 08:19:19;;;;;;;;;;;12.50;99.90;;;;;;6218314;23;20375;-77
2022/09/26 08:22:06;;;;;;;;;;;12.60;99.90;;;;;;6192372;23;19958;-84
2022/09/26 08:24:31;;;;;;;;;;;12.60;99.90;;;;;;6192466;23;20314;-74
2022/09/26 08:26:57;;;;;;;;;;;12.60;99.90;;;;;;6166758;23;19922;-76
2022/09/26 08:29:23;;;;;;;;;;;12.60;99.90;;;;;;6216211;23;19911;-78
2022/09/26 08:31:50;;;;;;;;;;;12.60;99.90;;;;;;6191875;23;19982;-76
2022/09/26 08:34:44;;;;;;;;;;;12.60;99.90;;;;;;6218585;23;19911;-82
2022/09/26 08:37:43;;;;;;;;;;;12.50;99.90;;;;;;6193290;23;19912;-77
2022/09/26 08:40:20;;;;;;;;;;;12.40;99.90;;;;;;6193398;23;19938;-80
2022/09/26 08:43:08;;;;;;;;;;;12.40;99.90;;;;;;6252781;22;19915;-79
2022/09/26 10:49:30;;;;;;;;;;;12.20;99.90;;;;;;6230570;22;19911;31
2022/09/26 10:52:22;;;;;;;;;;;12.30;99.90;;;;;;6194231;23;19923;-79
2022/09/26 10:55:14;;;;;;;;;;;12.30;99.90;;;;;;6137319;23;19918;-79
2022/09/26 10:57:48;;;;;;;;;;;12.40;99.90;;;;;;6082675;23;19987;-79
2022/09/26 11:00:18;;;;;;;;;;;12.50;99.90;;;;;;6136476;23;19943;-78
2022/09/26 11:02:50;;;;;;;;;;;12.70;99.90;;;;;;6136010;23;20235;-79
2022/09/26 11:08:09;;;;;;;;;;;12.80;99.90;;;;;;6160854;23;19912;-77
2022/09/26 11:10:44;;;;;;;;;;;12.90;99.90;;;;;;6136641;23;19912;-77
2022/09/26 11:13:46;;;;;;;;;;;13.00;99.90;;;;;;6137181;23;19939;-78
2022/09/26 11:16:50;;;;;;;;;;;13.10;99.90;;;;;;6136841;23;19919;-78
2022/09/26 11:23:01;;;;;;;;;;;13.10;99.90;;;;;;6160539;23;20331;-79
2022/09/26 11:25:31;;;;;;;;;;;13.20;99.90;;;;;;6161114;23;19912;-77
2022/09/26 11:28:35;;;;;;;;;;;13.20;99.90;;;;;;6136257;23;19912;-78
2022/09/26 11:31:32;;;;;;;;;;;13.30;99.90;;;;;;6133515;23;19912;-74
2022/09/26 11:34:25;;;;;;;;;;;13.50;99.90;;;;;;6158051;23;19952;-75
2022/09/26 11:50:35;;;;;;;;;;;13.80;99.90;;;;;;6101308;23;19923;-78
2022/09/26 11:53:47;;;;;;;;;;;14.10;99.90;;;;;;6097013;23;19920;-73
2022/09/26 11:56:22;;;;;;;;;;;14.10;99.90;;;;;;6153882;23;19912;-71
2022/09/26 12:02:14;;;;;;;;;;;14.70;99.90;;;;;;6216220;23;19938;-75
2022/09/26 12:04:52;;;;;;;;;;;14.90;99.90;;;;;;6187852;23;20322;-70
2022/09/26 12:07:19;;;;;;;;;;;14.80;99.90;;;;;;6164251;23;19995;-73
2022/09/26 12:13:33;;;;;;;;;;;14.80;99.90;;;;;;6187283;23;19922;-76
2022/09/26 12:16:08;;;;;;;;;;;14.70;99.90;;;;;;6188564;23;19912;-77
2022/09/26 12:22:27;;;;;;;;;;;14.50;99.90;;;;;;6154021;23;19999;-77
2022/09/26 12:31:53;;;;;;;;;;;14.20;99.90;;;;;;6119445;23;19919;-78
2022/09/26 12:41:11;;;;;;;;;;;14.10;99.90;;;;;;6190247;23;19916;-78
2022/09/26 12:43:58;;;;;;;;;;;14.10;99.90;;;;;;6161816;23;20230;-79
2022/09/26 12:46:48;;;;;;;;;;;14.10;99.90;;;;;;6166325;23;19912;-79
2022/09/26 12:49:28;;;;;;;;;;;14.30;99.90;;;;;;6165415;23;20342;-80
2022/09/26 12:52:12;;;;;;;;;;;14.30;99.90;;;;;;6165140;23;19916;-78
2022/09/26 12:55:31;;;;;;;;;;;;;;;;;;;;;
2022/09/26 13:15:03;;;;;;;;;;;15.10;99.90;;;;;;6306106;22;19909;-75
2022/09/26 13:17:35;;;;;;;;;;;15.30;99.90;;;;;;6253478;22;19989;-76
2022/09/26 13:27:11;;;;;;;;;;;15.40;99.90;;;;;;6184269;22;19911;-82
2022/09/26 13:29:57;;;;;;;;;;;15.30;99.90;;;;;;6134393;23;19916;-77
2022/09/26 13:32:54;;;;;;;;;;;15.20;99.90;;;;;;6181359;23;19912;-74
2022/09/26 13:35:24;;;;;;;;;;;15.20;99.90;;;;;;6144180;23;19931;-76
2022/09/26 13:41:45;;;;;;;;;;;15.20;99.90;;;;;;6150250;23;20815;-78
2022/09/26 13:44:45;;;;;;;;;;;15.20;99.90;;;;;;6127325;23;19921;-79
2022/09/26 13:51:11;;;;;;;;;;;15.30;99.90;;;;;;6064774;23;20301;-82
2022/09/26 13:53:49;;;;;;;;;;;15.30;99.90;;;;;;6041177;23;19921;-77
2022/09/26 13:57:14;;;;;;;;;;;15.40;99.90;;;;;;5932389;24;19919;-78
2022/09/26 14:15:34;;;;;;;;;;;14.50;99.90;;;;;;6216789;23;19946;-82
2022/09/26 20:27:38;;;;;;;;;;;11.20;99.90;;;;;;6298482;22;19915;-76
2022/09/26 20:33:20;;;;;;;;;;;11.10;99.90;;;;;;6281443;22;19953;-78
2022/09/26 20:35:46;;;;;;;;;;;11.10;99.90;;;;;;6238789;22;19927;-75
2022/09/26 20:38:20;;;;;;;;;;;11.10;99.90;;;;;;6253472;22;19947;-76
2022/09/26 20:41:01;;;;;;;;;;;;;;;;;;;;;
2022/09/26 21:36:39;;;;;;;;;;;10.50;99.90;;;;;;6271036;22;19915;-79
